Terminal Aerodrome Forecast
Issued by NWS Cleveland, OH

Home | Current Version | Previous Version | Text Only | Print | Product List | Glossary On
Versions: 1 2 3 4 5 6 7 8 9 10 11 12 13 14 15 16
000
FTUS41 KCLE 181100
TAFCAK
TAF
KCAK 181131Z 1812/1912 23005KT P6SM SCT250
     FM181700 32006KT P6SM FEW050 SCT250
     FM181900 02010KT P6SM FEW050 BKN250
     FM190100 06010KT P6SM BKN200=

USA.gov is the U.S. government's official web portal to all federal, state and local government web resources and services.